Time;durP1;ratioP1;P1;durP2;ratioP2;P2;SDS_P1;SDS_P2;PMS_P1;PMS_P2;Temp;Humidity;BMP_temperature;BMP_pressure;BME280_temperature;BME280_humidity;BME280_pressure;Samples;Min_cycle;Max_cycle;Signal;HPM_P1;HPM_P2
2022/03/04 00:01:34;;;;;;;19.60;10.63;;;;;;;3.97;56.65;101829.00;5062475;28;20047;-84
2022/03/04 00:04:00;;;;;;;18.20;9.95;;;;;;;3.95;56.14;101830.72;5065714;28;20456;-84
2022/03/04 00:06:25;;;;;;;21.35;11.18;;;;;;;3.91;56.90;101828.97;5063341;28;20107;-84
2022/03/04 00:08:51;;;;;;;24.75;12.98;;;;;;;3.84;56.51;101835.94;5064320;28;20036;-85
2022/03/04 00:11:17;;;;;;;20.77;10.95;;;;;;;3.75;58.34;101830.66;5066549;28;20351;-85
2022/03/04 00:13:43;;;;;;;20.40;10.68;;;;;;;3.77;57.24;101848.97;5064340;28;20036;-85
2022/03/04 00:16:08;;;;;;;20.73;11.07;;;;;;;3.73;57.20;101839.34;5063039;28;20036;-85
2022/03/04 00:18:34;;;;;;;20.30;11.27;;;;;;;3.70;59.55;101837.63;5061159;28;20032;-85
2022/03/04 00:21:01;;;;;;;25.45;12.23;;;;;;;3.70;57.87;101849.81;5063695;28;20579;-84
2022/03/04 00:23:26;;;;;;;22.15;11.50;;;;;;;3.69;61.03;101855.94;5064464;28;20036;-84
2022/03/04 00:25:51;;;;;;;23.70;11.40;;;;;;;3.65;59.02;101851.56;5065503;28;20484;-85
2022/03/04 00:28:16;;;;;;;21.88;11.43;;;;;;;3.57;60.29;101851.50;5063619;28;20036;-85
2022/03/04 00:30:42;;;;;;;20.85;11.15;;;;;;;3.56;58.31;101845.41;5061863;28;20032;-85
2022/03/04 00:33:07;;;;;;;23.17;12.20;;;;;;;3.60;57.82;101842.81;5062919;28;20032;-85
2022/03/04 00:35:32;;;;;;;22.88;12.20;;;;;;;3.61;57.49;101842.81;5065907;28;20115;-84
2022/03/04 00:37:58;;;;;;;20.20;10.15;;;;;;;3.67;57.68;101857.66;5063038;28;20096;-85
2022/03/04 00:40:23;;;;;;;24.75;11.90;;;;;;;3.61;59.76;101857.63;5065182;28;20641;-85
2022/03/04 00:42:48;;;;;;;21.35;10.85;;;;;;;3.62;61.47;101867.22;5064027;28;20032;-84
2022/03/04 00:45:14;;;;;;;21.17;11.07;;;;;;;3.53;59.02;101863.69;5061346;28;20425;-85
2022/03/04 00:47:39;;;;;;;24.48;12.55;;;;;;;3.45;61.83;101857.56;5061671;28;20852;-85
2022/03/04 00:50:06;;;;;;;25.13;12.55;;;;;;;3.40;62.65;101855.75;5061851;28;20492;-85
2022/03/04 00:52:31;;;;;;;26.13;12.27;;;;;;;3.33;62.88;101854.88;5063932;28;20024;-85
2022/03/04 00:54:57;;;;;;;22.88;11.55;;;;;;;3.31;60.50;101861.81;5063904;28;20105;-85
2022/03/04 00:57:23;;;;;;;24.88;12.80;;;;;;;3.26;59.38;101847.84;5062339;28;20025;-85
2022/03/04 00:59:48;;;;;;;22.90;11.73;;;;;;;3.20;59.42;101843.44;5062502;28;20028;-84
2022/03/04 01:02:13;;;;;;;21.77;11.95;;;;;;;3.24;61.31;101860.91;5060199;28;20472;-85
2022/03/04 01:04:39;;;;;;;25.90;12.68;;;;;;;3.11;62.91;101855.59;5063243;28;20111;-85
2022/03/04 01:07:04;;;;;;;26.73;12.73;;;;;;;2.97;63.68;101848.53;5062386;28;20427;-85
2022/03/04 01:09:29;;;;;;;23.45;12.60;;;;;;;2.87;60.86;101859.78;5061414;28;20028;-84
2022/03/04 01:11:55;;;;;;;30.10;14.23;;;;;;;2.78;62.69;101851.84;5063711;28;20032;-85
2022/03/04 01:14:21;;;;;;;26.42;14.18;;;;;;;2.78;64.34;101859.69;5062712;28;20404;-85
2022/03/04 01:16:46;;;;;;;29.17;13.23;;;;;;;2.70;63.65;101863.97;5062212;28;20036;-84
2022/03/04 01:19:11;;;;;;;23.85;13.63;;;;;;;2.68;64.48;101869.19;5060633;28;20040;-84
2022/03/04 01:21:38;;;;;;;24.05;13.10;;;;;;;2.61;63.00;101863.88;5064567;28;20794;-85
2022/03/04 01:24:04;;;;;;;22.55;12.35;;;;;;;2.61;64.02;101864.78;5064413;28;20021;-84
2022/03/04 01:26:29;;;;;;;21.90;12.48;;;;;;;2.65;62.49;101861.31;5064705;28;20039;-85
2022/03/04 01:28:55;;;;;;;26.85;14.02;;;;;;;2.69;63.07;101849.16;5078917;28;20024;-84
2022/03/04 01:31:20;;;;;;;22.98;12.27;;;;;;;2.72;65.56;101863.13;5063428;28;20370;-85
2022/03/04 01:33:45;;;;;;;24.45;12.60;;;;;;;2.60;65.30;101857.78;5062788;28;20386;-84
2022/03/04 01:36:10;;;;;;;24.80;12.68;;;;;;;2.49;64.77;101851.63;5063541;28;20086;-84
2022/03/04 01:38:36;;;;;;;26.58;13.60;;;;;;;2.30;65.16;101850.56;5063691;28;20029;-84
2022/03/04 01:41:02;;;;;;;24.35;12.50;;;;;;;2.28;66.11;101858.38;5061449;28;20503;-84
2022/03/04 01:43:28;;;;;;;21.50;10.98;;;;;;;2.13;63.48;101849.50;5059996;28;20454;-84
2022/03/04 01:45:53;;;;;;;22.85;12.13;;;;;;;2.04;64.22;101853.75;5062716;28;20048;-84
2022/03/04 01:48:22;;;;;;;23.77;12.93;;;;;;;1.98;65.68;101848.47;5062964;28;20414;-84
2022/03/04 01:50:49;;;;;;;26.20;13.35;;;;;;;1.93;66.60;101849.28;5063479;28;20098;-84
2022/03/04 01:53:15;;;;;;;23.85;10.93;;;;;;;1.85;67.17;101858.75;5063847;28;20047;-84
2022/03/04 01:55:41;;;;;;;25.30;12.43;;;;;;;1.81;66.92;101849.13;5062716;28;20388;-84
2022/03/04 01:58:06;;;;;;;23.90;12.32;;;;;;;1.87;66.18;101857.94;5062806;28;20031;-84
2022/03/04 02:00:31;;;;;;;26.85;12.65;;;;;;;1.79;66.88;101852.59;5060217;28;21310;-84
2022/03/04 02:02:59;;;;;;;24.15;12.93;;;;;;;1.87;65.19;101865.75;5062881;28;20130;-84
2022/03/04 02:05:25;;;;;;;24.98;12.52;;;;;;;1.89;66.71;101870.97;5064318;28;20019;-84
2022/03/04 02:07:51;;;;;;;24.50;12.18;;;;;;;1.75;65.58;101852.56;5062777;28;20024;-84
2022/03/04 02:10:16;;;;;;;24.20;12.18;;;;;;;1.74;66.37;101867.31;5060255;28;20017;-84
2022/03/04 02:12:41;;;;;;;25.95;12.50;;;;;;;1.65;67.67;101859.38;5061318;28;20082;-84
2022/03/04 02:15:08;;;;;;;25.58;12.98;;;;;;;1.59;68.85;101866.25;5062191;28;20139;-84
2022/03/04 02:17:34;;;;;;;25.38;13.70;;;;;;;1.53;70.04;101859.22;5058894;28;20047;-84
2022/03/04 02:19:59;;;;;;;24.23;12.95;;;;;;;1.45;69.23;101851.31;5057685;28;20110;-84
2022/03/04 02:22:25;;;;;;;24.83;12.52;;;;;;;1.48;68.67;101860.88;5060060;28;20022;-84
2022/03/04 02:24:50;;;;;;;29.10;13.43;;;;;;;1.53;69.17;101864.44;5060233;28;20056;-84
2022/03/04 02:27:15;;;;;;;23.23;12.23;;;;;;;1.51;68.23;101861.81;5060305;28;20060;-84
2022/03/04 02:29:41;;;;;;;25.75;12.77;;;;;;;1.59;67.86;101858.44;5061036;28;20097;-84
2022/03/04 02:32:06;;;;;;;28.95;13.32;;;;;;;1.64;68.32;101849.81;5062626;28;20399;-84
2022/03/04 02:34:32;;;;;;;24.40;12.15;;;;;;;1.59;68.51;101854.09;5061559;28;20391;-84
2022/03/04 02:36:57;;;;;;;30.15;13.00;;;;;;;1.51;66.75;101853.13;5064044;28;20115;-84
2022/03/04 02:39:23;;;;;;;26.17;12.75;;;;;;;1.42;67.58;101846.06;5061402;28;20229;-84
2022/03/04 02:41:49;;;;;;;30.08;12.90;;;;;;;1.34;68.05;101839.84;5059240;28;20032;-84
2022/03/04 02:44:14;;;;;;;26.15;13.13;;;;;;;1.27;68.67;101838.91;5061383;28;20035;-84
2022/03/04 02:46:40;;;;;;;23.70;11.95;;;;;;;1.21;68.81;101840.53;5061158;28;20232;-84
2022/03/04 02:49:07;;;;;;;26.65;12.88;;;;;;;1.11;67.50;101836.91;5063077;28;20472;-84
2022/03/04 02:51:33;;;;;;;22.80;12.00;;;;;;;1.09;67.88;101850.78;5061179;28;20440;-84
2022/03/04 02:53:58;;;;;;;24.65;11.85;;;;;;;1.01;68.39;101833.31;5063712;28;20079;-84
2022/03/04 02:56:24;;;;;;;26.58;12.95;;;;;;;1.01;69.38;101837.66;5063609;28;20036;-84
2022/03/04 02:58:50;;;;;;;22.95;11.63;;;;;;;1.02;68.09;101842.00;5061321;28;20028;-84
2022/03/04 03:01:16;;;;;;;23.95;12.52;;;;;;;0.99;69.52;101836.75;5060796;28;20470;-84
2022/03/04 03:03:41;;;;;;;20.17;11.18;;;;;;;0.97;67.73;101841.91;5062989;28;20025;-84
2022/03/04 03:06:07;;;;;;;23.38;12.45;;;;;;;0.94;67.82;101848.84;5062655;28;20504;-84
2022/03/04 03:08:32;;;;;;;29.73;13.40;;;;;;;0.93;67.82;101849.66;5060709;28;20047;-84
2022/03/04 03:10:57;;;;;;;25.40;13.07;;;;;;;0.89;69.09;101827.94;5059227;28;20028;-84
2022/03/04 03:13:23;;;;;;;25.50;12.98;;;;;;;0.96;70.61;101837.56;5064243;28;20089;-84
2022/03/04 03:15:49;;;;;;;28.65;13.18;;;;;;;0.99;67.25;101839.38;5068739;28;20150;-84
2022/03/04 03:18:15;;;;;;;26.20;12.98;;;;;;;0.98;68.73;101842.81;5065499;28;20042;-84
2022/03/04 03:20:40;;;;;;;30.75;14.13;;;;;;;0.89;68.45;101835.75;5066175;28;20023;-84
2022/03/04 03:23:06;;;;;;;27.92;13.52;;;;;;;0.75;69.09;101834.66;5066740;28;20137;-84
2022/03/04 03:25:31;;;;;;;31.63;14.63;;;;;;;0.73;70.78;101836.34;5064489;28;20522;-84
2022/03/04 03:27:57;;;;;;;26.90;13.88;;;;;;;0.77;71.41;101839.00;5065957;28;20046;-84
2022/03/04 03:30:23;;;;;;;27.15;13.32;;;;;;;0.76;69.58;101846.81;5065378;28;20036;-84
2022/03/04 03:32:48;;;;;;;29.48;14.32;;;;;;;0.72;71.15;101834.59;5065974;28;20056;-84
2022/03/04 03:35:14;;;;;;;32.67;14.75;;;;;;;0.69;70.15;101840.59;5065796;28;20228;-84
2022/03/04 03:37:39;;;;;;;27.75;13.07;;;;;;;0.69;68.34;101850.16;5066313;28;20453;-84
2022/03/04 03:40:07;;;;;;;28.10;14.05;;;;;;;0.65;69.31;101843.13;5064462;28;20060;-84
2022/03/04 03:42:32;;;;;;;25.95;13.00;;;;;;;0.66;68.84;101848.38;5063465;28;20021;-84
2022/03/04 03:44:57;;;;;;;28.63;12.90;;;;;;;0.61;67.79;101838.75;5064057;28;20028;-84
2022/03/04 03:47:23;;;;;;;26.48;12.93;;;;;;;0.65;71.32;101849.25;5064148;28;20077;-84
2022/03/04 03:49:48;;;;;;;28.88;13.95;;;;;;;0.66;70.79;101839.72;5063953;28;20021;-84
2022/03/04 03:52:14;;;;;;;25.50;12.25;;;;;;;0.59;70.42;101838.72;5065411;28;20024;-84
2022/03/04 03:54:40;;;;;;;31.13;13.45;;;;;;;0.62;69.01;101838.78;5066364;28;20495;-84
2022/03/04 03:57:05;;;;;;;25.58;13.65;;;;;;;0.66;69.89;101839.72;5068352;28;20460;-84
2022/03/04 03:59:30;;;;;;;25.52;13.77;;;;;;;0.76;68.64;101852.00;5063458;28;20027;-84
2022/03/04 04:01:56;;;;;;;26.77;13.23;;;;;;;0.76;69.16;101833.78;5064988;28;20613;-84
2022/03/04 04:04:21;;;;;;;31.83;14.43;;;;;;;0.82;67.91;101849.50;5064033;28;20674;-84
2022/03/04 04:06:46;;;;;;;26.92;13.85;;;;;;;0.82;70.02;101849.50;5064584;28;20081;-84
2022/03/04 04:09:12;;;;;;;30.77;14.43;;;;;;;0.80;70.97;101852.94;5064775;28;20037;-84
2022/03/04 04:11:39;;;;;;;26.65;13.73;;;;;;;0.76;68.11;101854.63;5064072;28;20036;-84
2022/03/04 04:14:06;;;;;;;27.48;13.77;;;;;;;0.69;70.17;101857.97;5064593;28;20028;-84
2022/03/04 04:16:31;;;;;;;28.02;13.75;;;;;;;0.62;69.14;101863.94;5067003;28;20040;-84
2022/03/04 04:18:58;;;;;;;26.77;13.95;;;;;;;0.65;71.19;101864.84;5063678;28;20028;-84
2022/03/04 04:21:26;;;;;;;26.38;13.93;;;;;;;0.64;69.36;101863.09;5063984;28;20028;-84
2022/03/04 04:23:55;;;;;;;30.55;14.90;;;;;;;0.71;69.02;101864.94;5065160;28;20027;-84
2022/03/04 04:26:22;;;;;;;30.77;16.00;;;;;;;0.74;68.71;101853.69;5064532;28;20043;-84
2022/03/04 04:28:48;;;;;;;34.08;14.88;;;;;;;0.82;67.99;101857.31;5066232;28;20024;-84
2022/03/04 04:31:14;;;;;;;29.50;14.27;;;;;;;0.80;68.35;101859.03;5063041;28;20104;-84
2022/03/04 04:33:39;;;;;;;29.42;14.25;;;;;;;0.88;68.49;101861.72;5062954;28;20036;-84
2022/03/04 04:36:05;;;;;;;28.00;14.38;;;;;;;0.95;67.76;101869.69;5062996;28;20028;-84
2022/03/04 04:38:31;;;;;;;30.23;14.85;;;;;;;0.93;68.07;101862.69;5061204;28;20043;-84
2022/03/04 04:40:57;;;;;;;30.50;13.85;;;;;;;0.90;69.63;101866.13;5077747;28;20169;-84
2022/03/04 04:43:23;;;;;;;29.00;15.32;;;;;;;0.93;68.41;101870.47;5064746;28;20111;-84
2022/03/04 04:45:48;;;;;;;34.47;14.88;;;;;;;0.82;68.93;101864.25;5064210;28;20533;-84
2022/03/04 04:48:14;;;;;;;28.75;14.40;;;;;;;0.77;69.49;101883.25;5064585;28;20029;-84
2022/03/04 04:50:39;;;;;;;28.45;14.38;;;;;;;0.65;68.64;101870.06;5097759;28;20035;-84
2022/03/04 04:53:04;;;;;;;30.02;14.80;;;;;;;0.72;69.70;101871.03;5063110;28;20112;-84
2022/03/04 04:55:30;;;;;;;31.73;15.07;;;;;;;0.76;70.72;101878.03;5062994;28;20021;-84
2022/03/04 04:57:55;;;;;;;27.42;15.02;;;;;;;0.73;69.33;101871.03;5063108;28;20082;-84
2022/03/04 05:00:20;;;;;;;28.48;14.77;;;;;;;0.77;69.08;101880.66;5063021;28;20048;-84
2022/03/04 05:02:46;;;;;;;29.73;14.95;;;;;;;0.73;69.70;101875.38;5063931;28;20085;-84
2022/03/04 05:05:11;;;;;;;30.17;14.80;;;;;;;0.62;70.63;101874.34;5064566;28;20029;-84
2022/03/04 05:07:37;;;;;;;30.08;14.60;;;;;;;0.45;70.61;101866.22;5063006;28;20029;-84
2022/03/04 05:10:04;;;;;;;31.02;15.90;;;;;;;0.32;71.39;101869.44;5061236;28;20032;-84
2022/03/04 05:12:29;;;;;;;27.63;14.98;;;;;;;0.34;72.61;101879.03;5063597;28;20029;-84
2022/03/04 05:14:55;;;;;;;31.38;14.60;;;;;;;0.19;71.62;101852.75;5063987;28;20035;-84
2022/03/04 05:17:20;;;;;;;34.33;14.68;;;;;;;0.27;71.91;101871.97;5063983;28;20036;-84
2022/03/04 05:19:46;;;;;;;28.42;13.95;;;;;;;0.30;70.44;101877.22;5061234;28;20039;-84
2022/03/04 05:22:11;;;;;;;29.95;14.70;;;;;;;0.23;71.58;101868.44;5062307;28;20107;-84
2022/03/04 05:24:36;;;;;;;29.10;14.30;;;;;;;0.21;72.22;101875.31;5062897;28;20044;-84
2022/03/04 05:27:02;;;;;;;32.22;15.48;;;;;;;0.21;71.61;101879.66;5063242;28;20032;-84
2022/03/04 05:29:28;;;;;;;30.00;15.30;;;;;;;0.12;71.45;101874.28;5079495;28;20016;-84
2022/03/04 05:31:53;;;;;;;26.48;13.93;;;;;;;0.13;71.23;101891.63;5060148;28;20038;-84
2022/03/04 05:34:18;;;;;;;30.10;13.80;;;;;;;0.08;71.76;101883.75;5062510;28;20043;-84
2022/03/04 05:36:44;;;;;;;34.08;15.75;;;;;;;-0.01;71.51;101878.34;5059330;28;20027;-84
2022/03/04 05:39:09;;;;;;;30.90;14.65;;;;;;;-0.02;70.54;101882.69;5062204;28;20113;-84
2022/03/04 05:41:34;;;;;;;28.75;14.38;;;;;;;0.01;71.25;101886.22;5062509;28;20140;-84
2022/03/04 05:44:00;;;;;;;37.35;14.05;;;;;;;0.00;70.77;101882.72;5061723;28;20036;-84
2022/03/04 05:46:25;;;;;;;26.35;13.75;;;;;;;-0.02;71.85;101885.28;5063552;28;20077;-84
2022/03/04 05:48:51;;;;;;;34.45;14.85;;;;;;;-0.06;70.77;101891.25;5059841;28;20034;-84
2022/03/04 05:51:17;;;;;;;31.40;15.63;;;;;;;-0.06;72.10;101898.19;5060955;28;20028;-84
2022/03/04 05:53:43;;;;;;;33.53;14.52;;;;;;;-0.09;71.10;101898.16;5062440;28;20044;-84
2022/03/04 05:56:09;;;;;;;29.45;14.30;;;;;;;-0.05;72.64;101910.31;5062028;28;20110;-84
2022/03/04 05:58:36;;;;;;;29.63;15.82;;;;;;;-0.12;72.57;101898.94;5061464;28;20031;-84
2022/03/04 06:01:02;;;;;;;32.08;14.90;;;;;;;-0.17;72.26;101900.56;5061294;28;20563;-84
2022/03/04 06:03:28;;;;;;;32.33;14.82;;;;;;;-0.12;72.31;101919.72;5061321;28;20401;-84
2022/03/04 06:05:53;;;;;;;28.60;14.73;;;;;;;-0.15;72.25;101918.78;5061540;28;20028;-84
2022/03/04 06:08:19;;;;;;;35.15;15.80;;;;;;;-0.06;72.32;101927.66;5061208;28;20029;-84
2022/03/04 06:10:44;;;;;;;32.28;15.80;;;;;;;-0.02;71.63;101919.06;5062968;28;20024;-84
2022/03/04 06:13:11;;;;;;;27.95;15.73;;;;;;;0.11;71.12;101922.81;5061399;28;20033;-84
2022/03/04 06:15:37;;;;;;;32.20;15.30;;;;;;;0.12;69.71;101918.47;5061968;28;20028;-84
2022/03/04 06:18:02;;;;;;;35.58;15.10;;;;;;;0.23;69.88;101927.34;5062126;28;20521;-84
2022/03/04 06:20:28;;;;;;;32.10;14.75;;;;;;;0.25;69.54;101913.56;5060698;28;20090;-84
2022/03/04 06:22:53;;;;;;;30.42;14.65;;;;;;;0.27;71.66;101915.28;5062709;28;20017;-84
2022/03/04 06:25:19;;;;;;;32.88;15.52;;;;;;;0.35;70.46;101921.53;5063754;28;20123;-84
2022/03/04 06:27:54;;;;;;;35.63;16.45;;;;;;;0.31;69.88;101912.78;5062550;28;20068;-84
2022/03/04 06:30:20;;;;;;;30.70;16.42;;;;;;;0.32;69.63;101917.13;5061421;28;20024;-84
2022/03/04 06:32:46;;;;;;;33.20;16.58;;;;;;;0.35;70.08;101917.19;5064540;28;20035;-84
2022/03/04 06:35:12;;;;;;;39.72;16.65;;;;;;;0.41;70.59;101914.72;5062288;28;20036;-84
2022/03/04 06:37:37;;;;;;;36.70;15.80;;;;;;;0.43;69.66;101914.75;5064828;28;20547;-84
2022/03/04 06:40:05;;;;;;;34.33;16.23;;;;;;;0.45;69.94;101916.53;5059948;28;20032;-84
2022/03/04 06:42:31;;;;;;;34.83;17.33;;;;;;;0.45;70.69;101918.25;5060715;28;20055;-84
2022/03/04 06:44:56;;;;;;;31.83;16.17;;;;;;;0.48;69.59;101933.94;5061645;28;20504;-85
2022/03/04 06:47:21;;;;;;;37.92;16.73;;;;;;;0.49;70.51;101928.75;5062293;28;20028;-84
2022/03/04 06:49:47;;;;;;;33.83;16.20;;;;;;;0.55;70.87;101929.69;5062155;28;20030;-84
2022/03/04 06:52:12;;;;;;;33.75;17.52;;;;;;;0.63;69.66;101934.19;5062334;28;20041;-85
2022/03/04 06:54:39;;;;;;;32.25;16.38;;;;;;;0.75;70.65;101941.38;5061238;28;20028;-85
2022/03/04 06:57:04;;;;;;;38.22;16.55;;;;;;;0.81;70.29;101941.47;5064569;28;20032;-84
2022/03/04 06:59:30;;;;;;;33.72;16.05;;;;;;;0.90;70.58;101953.78;5060342;28;20399;-84
2022/03/04 07:01:55;;;;;;;31.02;16.17;;;;;;;0.93;69.55;101951.19;5060602;28;20665;-85
2022/03/04 07:04:20;;;;;;;30.65;15.30;;;;;;;1.00;69.40;101960.88;5061112;28;20450;-85
2022/03/04 07:06:46;;;;;;;31.50;15.68;;;;;;;0.98;68.84;101955.66;5061587;28;20028;-85
2022/03/04 07:09:11;;;;;;;36.28;16.27;;;;;;;1.07;69.02;101960.13;5062602;28;20025;-85
2022/03/04 07:11:36;;;;;;;36.33;16.48;;;;;;;1.17;69.43;101961.16;5062240;28;20445;-85
2022/03/04 07:14:02;;;;;;;39.67;16.73;;;;;;;1.22;69.00;101967.31;5061252;28;20025;-84
2022/03/04 07:16:27;;;;;;;35.10;16.88;;;;;;;1.33;68.14;101973.56;5061339;28;20024;-85
2022/03/04 07:18:52;;;;;;;32.85;15.43;;;;;;;1.26;68.02;101954.38;5061113;28;20033;-85
2022/03/04 07:21:18;;;;;;;33.90;15.82;;;;;;;1.37;68.03;101972.78;5061500;28;20090;-84
2022/03/04 07:23:43;;;;;;;29.95;14.57;;;;;;;1.47;67.82;101964.25;5062138;28;20028;-85
2022/03/04 07:26:10;;;;;;;30.38;14.68;;;;;;;1.56;67.07;101975.66;5059631;28;20061;-84
2022/03/04 07:28:36;;;;;;;33.20;16.30;;;;;;;1.61;67.32;101979.22;5060389;28;20472;-84
2022/03/04 07:31:01;;;;;;;31.85;15.52;;;;;;;1.64;67.58;101972.31;5059927;28;20033;-85
2022/03/04 07:33:26;;;;;;;29.05;14.57;;;;;;;1.72;67.69;101981.09;5062542;28;20025;-85
2022/03/04 07:35:52;;;;;;;27.95;15.43;;;;;;;1.82;67.59;101971.72;5061187;28;20078;-85
2022/03/04 07:38:17;;;;;;;34.08;16.52;;;;;;;1.87;67.33;101975.25;5060511;28;20575;-85
2022/03/04 07:40:43;;;;;;;32.72;15.30;;;;;;;1.91;67.76;101976.16;5060551;28;20111;-85
2022/03/04 07:43:09;;;;;;;30.55;15.45;;;;;;;2.02;67.78;101979.81;5061601;28;20028;-84
2022/03/04 07:45:34;;;;;;;29.67;15.75;;;;;;;2.15;67.58;101986.06;5062441;28;20020;-84
2022/03/04 07:47:59;;;;;;;34.20;17.70;;;;;;;2.19;66.28;101980.91;5060225;28;20479;-84
2022/03/04 07:50:25;;;;;;;29.35;15.07;;;;;;;2.29;66.54;101987.13;5061370;28;20071;-85
2022/03/04 07:52:53;;;;;;;31.88;15.90;;;;;;;2.39;66.07;101986.34;5058916;28;20028;-85
2022/03/04 07:55:20;;;;;;;33.53;15.77;;;;;;;2.49;64.90;101984.72;5061551;28;20036;-85
2022/03/04 07:57:46;;;;;;;33.70;16.90;;;;;;;2.59;65.22;101983.97;5057934;28;20036;-85
2022/03/04 08:00:14;;;;;;;31.23;15.45;;;;;;;2.67;65.93;101986.66;5061276;28;20038;-84
2022/03/04 08:02:42;;;;;;;29.10;15.70;;;;;;;2.77;65.34;101978.94;5063238;28;20320;-84
2022/03/04 08:05:08;;;;;;;35.40;15.48;;;;;;;2.83;65.01;101993.78;5067411;28;20122;-84
2022/03/04 08:07:36;;;;;;;34.13;15.57;;;;;;;2.96;65.15;101990.44;5064604;28;20519;-85
2022/03/04 08:10:07;;;;;;;30.95;15.55;;;;;;;3.10;64.52;101987.97;5063652;28;20024;-85
2022/03/04 08:12:32;;;;;;;29.55;15.30;;;;;;;3.33;64.28;101980.31;5063356;28;20410;-85
2022/03/04 08:14:57;;;;;;;32.15;14.88;;;;;;;3.75;63.63;101978.88;5065271;28;20024;-85
2022/03/04 08:17:23;;;;;;;32.70;15.10;;;;;;;4.18;61.13;101984.31;5063406;28;20028;-85
2022/03/04 08:19:48;;;;;;;34.60;14.10;;;;;;;4.52;60.90;102001.94;5061546;28;20349;-85
2022/03/04 08:22:13;;;;;;;30.17;14.80;;;;;;;4.87;59.71;101982.81;5062507;28;20525;-85
2022/03/04 08:24:39;;;;;;;31.58;15.10;;;;;;;5.21;57.82;101982.81;5063752;28;20052;-85
2022/03/04 08:27:04;;;;;;;28.48;13.30;;;;;;;5.71;57.19;101989.78;5062770;28;21264;-85
2022/03/04 08:29:29;;;;;;;27.88;13.25;;;;;;;6.04;54.88;101989.75;5063749;28;20020;-85
2022/03/04 08:31:54;;;;;;;26.13;13.88;;;;;;;6.24;54.77;101992.28;5059888;28;20043;-85
2022/03/04 08:34:20;;;;;;;26.80;15.02;;;;;;;6.47;54.08;101994.81;5063577;28;20115;-85
2022/03/04 08:36:45;;;;;;;29.58;13.55;;;;;;;6.77;54.28;102006.09;5062914;28;20032;-85
2022/03/04 08:39:11;;;;;;;29.58;14.02;;;;;;;7.03;51.97;101998.00;5063909;28;20149;-85
2022/03/04 08:41:36;;;;;;;29.52;14.35;;;;;;;7.23;52.27;101997.84;5060656;28;20020;-85
2022/03/04 08:44:02;;;;;;;25.17;13.40;;;;;;;7.52;50.79;102014.28;5064118;28;20035;-85
2022/03/04 08:46:28;;;;;;;26.63;13.40;;;;;;;7.85;49.91;102007.84;5063805;28;20024;-85
2022/03/04 08:48:53;;;;;;;27.55;14.68;;;;;;;8.22;48.42;102009.22;5063829;28;20095;-85
2022/03/04 08:51:18;;;;;;;23.55;11.60;;;;;;;8.66;47.85;102009.53;5061583;28;20039;-85
2022/03/04 08:53:44;;;;;;;26.85;14.38;;;;;;;9.19;46.73;102010.53;5064148;28;20105;-85
2022/03/04 08:56:09;;;;;;;26.92;13.77;;;;;;;9.74;45.60;102018.41;5063422;28;20491;-85
2022/03/04 08:58:35;;;;;;;28.73;13.90;;;;;;;9.94;45.35;102009.25;5063374;28;20012;-86
2022/03/04 09:01:01;;;;;;;24.77;13.60;;;;;;;10.52;42.44;102007.22;5064057;28;20395;-86
2022/03/04 09:03:26;;;;;;;25.17;13.27;;;;;;;11.06;41.93;102021.94;5063462;28;20054;-85
2022/03/04 09:05:52;;;;;;;29.95;14.88;;;;;;;11.27;39.81;102010.81;5064863;28;20166;-86
2022/03/04 09:08:17;;;;;;;26.63;15.32;;;;;;;11.58;38.66;102010.06;5061627;28;20077;-86
2022/03/04 09:10:43;;;;;;;27.88;15.02;;;;;;;12.03;39.26;102021.25;5061800;28;20025;-85
2022/03/04 09:13:08;;;;;;;25.60;13.07;;;;;;;12.73;37.71;102018.38;5063532;28;20070;-85
2022/03/04 09:15:34;;;;;;;21.92;11.25;;;;;;;12.88;35.37;102017.88;5062679;28;20371;-86
2022/03/04 09:17:59;;;;;;;25.85;14.43;;;;;;;13.56;37.60;102021.03;5062994;28;20029;-85
2022/03/04 09:20:25;;;;;;;30.60;15.45;;;;;;;14.08;34.76;102006.78;5063301;28;20032;-85
2022/03/04 09:22:51;;;;;;;25.85;14.60;;;;;;;14.72;34.41;102009.75;5061544;28;20048;-85
2022/03/04 09:25:16;;;;;;;24.00;13.35;;;;;;;15.39;32.60;101999.97;5062957;28;20139;-85
2022/03/04 09:27:43;;;;;;;22.83;14.40;;;;;;;15.86;31.78;101998.00;5063092;28;20028;-85
2022/03/04 09:30:09;;;;;;;26.02;14.35;;;;;;;16.38;30.87;101986.78;5062846;28;20100;-85
2022/03/04 09:32:38;;;;;;;25.42;14.95;;;;;;;16.21;31.18;101992.88;5063301;28;20104;-85
2022/03/04 09:35:05;;;;;;;21.60;13.57;;;;;;;16.55;31.15;101989.50;5064139;28;20548;-85
2022/03/04 09:37:32;;;;;;;27.17;14.25;;;;;;;16.66;29.17;101995.22;5062536;28;20096;-85
2022/03/04 09:39:57;;;;;;;25.58;15.10;;;;;;;16.79;29.67;101985.72;5059842;28;20478;-85
2022/03/04 09:42:23;;;;;;;26.20;14.43;;;;;;;17.47;29.63;101983.25;5060702;28;20036;-86
2022/03/04 09:44:49;;;;;;;24.55;14.10;;;;;;;17.55;28.39;101988.22;5061857;28;20028;-86
2022/03/04 09:47:19;;;;;;;24.10;14.45;;;;;;;17.96;27.88;101979.91;5062347;28;20163;-85
2022/03/04 09:49:45;;;;;;;23.85;14.20;;;;;;;18.35;26.91;101987.56;5063816;28;20056;-85
2022/03/04 09:52:11;;;;;;;24.95;14.65;;;;;;;18.61;26.86;101988.84;5064593;28;20063;-86
2022/03/04 09:54:36;;;;;;;25.85;14.52;;;;;;;18.51;26.72;101992.94;5065172;28;20029;-85
2022/03/04 09:57:02;;;;;;;25.15;15.07;;;;;;;17.89;25.49;101992.72;5060364;28;20078;-86
2022/03/04 09:59:27;;;;;;;23.83;14.60;;;;;;;18.11;26.14;102000.47;5062169;28;20025;-86
2022/03/04 10:01:53;;;;;;;26.85;15.40;;;;;;;18.71;26.23;101999.94;5059908;28;20021;-86
2022/03/04 10:04:18;;;;;;;25.63;15.25;;;;;;;19.45;26.26;101999.25;5061251;28;20024;-86
2022/03/04 10:06:49;;;;;;;26.92;15.40;;;;;;;20.31;24.72;101989.53;5061603;28;20104;-86
2022/03/04 10:09:36;;;;;;;26.00;14.55;;;;;;;20.04;26.02;102001.03;5059653;28;20260;-86
2022/03/04 10:12:03;;;;;;;26.00;15.57;;;;;;;20.87;25.38;101996.69;5059453;28;20032;-86
2022/03/04 10:14:29;;;;;;;21.60;14.02;;;;;;;21.63;23.29;101992.56;5060487;28;20491;-86
2022/03/04 10:16:57;;;;;;;22.20;14.43;;;;;;;22.11;24.35;101996.44;5060564;28;20166;-86
2022/03/04 10:19:23;;;;;;;22.00;15.18;;;;;;;22.16;22.56;101996.09;5059707;28;20033;-86
2022/03/04 10:21:50;;;;;;;25.80;15.02;;;;;;;22.63;21.57;102003.47;5060302;28;20525;-86
2022/03/04 10:24:17;;;;;;;24.92;15.93;;;;;;;22.97;20.67;102005.56;5059089;28;20064;-86
2022/03/04 10:26:43;;;;;;;23.38;15.02;;;;;;;22.20;21.51;102002.13;5074871;28;20477;-86
2022/03/04 10:29:22;;;;;;;25.42;14.95;;;;;;;22.32;24.11;102010.19;5057522;28;20028;-85
2022/03/04 10:32:20;;;;;;;24.98;16.50;;;;;;;22.59;23.82;102001.09;5058856;28;20080;-86
2022/03/04 10:34:48;;;;;;;25.92;17.20;;;;;;;22.48;21.25;102003.72;5026345;28;20156;-86
2022/03/04 10:37:16;;;;;;;25.90;16.17;;;;;;;22.74;23.83;102007.22;5058135;28;20016;-87
2022/03/04 10:40:03;;;;;;;25.85;16.00;;;;;;;23.37;21.93;101992.66;5058615;28;20036;-87
2022/03/04 10:42:48;;;;;;;25.02;16.77;;;;;;;22.73;21.58;101990.19;5041617;28;20119;-86
2022/03/04 10:45:41;;;;;;;26.23;15.85;;;;;;;22.41;22.31;101998.75;5058698;28;20024;-86
2022/03/04 10:48:15;;;;;;;29.45;16.48;;;;;;;22.69;21.50;102002.16;5058039;28;20032;-86
2022/03/04 10:50:40;;;;;;;24.15;16.27;;;;;;;23.35;20.67;101998.13;5060944;28;20021;-87
2022/03/04 10:53:10;;;;;;;21.83;15.73;;;;;;;23.40;20.84;102005.88;5058089;28;20025;-87
2022/03/04 10:55:42;;;;;;;25.60;16.98;;;;;;;22.22;21.33;101998.34;5058480;28;20542;-87
2022/03/04 10:58:19;;;;;;;;;;;;;;;23.20;23.72;101998.44;5059054;28;20482;-87
2022/03/04 11:00:52;;;;;;;23.40;16.02;;;;;;;23.86;20.84;101987.03;5058723;28;19935;-87
2022/03/04 11:03:29;;;;;;;23.60;17.20;;;;;;;23.77;20.39;101995.00;5059195;28;20030;-87
2022/03/04 11:06:03;;;;;;;23.92;15.15;;;;;;;24.54;20.08;101992.53;5060102;28;20244;-87
2022/03/04 11:08:45;;;;;;;24.85;16.45;;;;;;;25.39;19.70;102000.81;5042558;28;20044;-87
2022/03/04 11:11:30;;;;;;;24.90;16.40;;;;;;;26.00;18.24;101998.28;5056456;28;20048;-87